www.cux-wetter.de
Wetterdaten: Mittwoch, 14.11.2007
Datum Zeit Temp. A. Feuchte A. Luftdruck Regen Wind Richtung Richtung Sonnenschein Solar Taupunkt Windchill Windben
14.11.2007 00:02 2,4 C 94 % 1004,5 hPa 0,0 l/m 15,2 km/h (3 Bft) NO 40 0 min 0 W/m 1,5 C -4,2 C 15,2 km/h (3 Bft)
14.11.2007 00:07 2,4 C 94 % 1004,5 hPa 0,0 l/m 13,7 km/h (3 Bft) NO 40 0 min 0 W/m 1,5 C -3,3 C 13,7 km/h (3 Bft)
14.11.2007 00:12 2,3 C 94 % 1004,5 hPa 0,0 l/m 14,5 km/h (3 Bft) NO 45 0 min 0 W/m 1,4 C -3,9 C 14,5 km/h (3 Bft)
14.11.2007 00:16 2,1 C 93 % 1004,5 hPa 0,0 l/m 12,0 km/h (2 Bft) NO 50 0 min 0 W/m 1,1 C -2,6 C 12,0 km/h (2 Bft)
14.11.2007 00:22 2,1 C 93 % 1004,5 hPa 0,0 l/m 14,2 km/h (3 Bft) NO 45 0 min 0 W/m 1,1 C -4,0 C 14,2 km/h (3 Bft)
14.11.2007 00:27 2,0 C 93 % 1004,5 hPa 0,0 l/m 13,3 km/h (3 Bft) N-NO 30 0 min 0 W/m 1,0 C -3,5 C 13,3 km/h (3 Bft)
14.11.2007 00:32 1,9 C 93 % 1004,5 hPa 0,0 l/m 16,8 km/h (3 Bft) NO 35 0 min 0 W/m 0,9 C -5,7 C 16,8 km/h (3 Bft)
14.11.2007 00:37 1,9 C 93 % 1004,5 hPa 0,0 l/m 14,2 km/h (3 Bft) N-NO 30 0 min 0 W/m 0,9 C -4,2 C 14,2 km/h (3 Bft)
14.11.2007 00:42 1,9 C 93 % 1004,5 hPa 0,0 l/m 14,0 km/h (3 Bft) NO 45 0 min 0 W/m 0,9 C -4,1 C 14,0 km/h (3 Bft)
14.11.2007 00:47 1,9 C 93 % 1004,5 hPa 0,0 l/m 28,5 km/h (5 Bft) NO 40 0 min 0 W/m 0,9 C -10,3 C 28,5 km/h (5 Bft)
14.11.2007 00:52 1,9 C 93 % 1004,5 hPa 0,0 l/m 16,5 km/h (3 Bft) NO 45 0 min 0 W/m 0,9 C -5,5 C 16,5 km/h (3 Bft)
14.11.2007 00:57 1,9 C 93 % 1004,5 hPa 0,0 l/m 15,9 km/h (3 Bft) NO 50 0 min 0 W/m 0,9 C -5,2 C 15,9 km/h (3 Bft)
14.11.2007 01:02 1,9 C 93 % 1004,5 hPa 0,0 l/m 15,4 km/h (3 Bft) NO 35 0 min 0 W/m 0,9 C -4,9 C 15,4 km/h (3 Bft)
14.11.2007 01:07 1,9 C 93 % 1004,5 hPa 0,0 l/m 12,7 km/h (3 Bft) NO 45 0 min 0 W/m 0,9 C -3,3 C 12,7 km/h (3 Bft)
14.11.2007 01:12 1,9 C 93 % 1004,5 hPa 0,0 l/m 17,2 km/h (3 Bft) NO 45 0 min 0 W/m 0,9 C -5,9 C 17,2 km/h (3 Bft)
14.11.2007 01:17 1,9 C 93 % 1004,5 hPa 0,0 l/m 17,9 km/h (3 Bft) N-NO 30 0 min 0 W/m 0,9 C -6,2 C 17,9 km/h (3 Bft)
14.11.2007 01:22 1,9 C 93 % 1004,5 hPa 0,0 l/m 15,6 km/h (3 Bft) NO 45 0 min 0 W/m 0,9 C -5,0 C 15,6 km/h (3 Bft)
14.11.2007 01:27 1,9 C 93 % 1004,5 hPa 0,0 l/m 17,4 km/h (3 Bft) NO 45 0 min 0 W/m 0,9 C -6,0 C 17,4 km/h (3 Bft)
14.11.2007 01:32 1,9 C 93 % 1004,5 hPa 0,0 l/m 15,8 km/h (3 Bft) NO 40 0 min 0 W/m 0,9 C -5,1 C 15,8 km/h (3 Bft)
14.11.2007 01:37 1,9 C 93 % 1004,5 hPa 0,0 l/m 15,5 km/h (3 Bft) NO 40 0 min 0 W/m 0,9 C -5,0 C 15,5 km/h (3 Bft)
14.11.2007 01:42 1,9 C 94 % 1004,5 hPa 0,0 l/m 14,2 km/h (3 Bft) NO 35 0 min 0 W/m 1,0 C -4,2 C 14,2 km/h (3 Bft)
14.11.2007 01:47 1,9 C 94 % 1004,5 hPa 0,0 l/m 19,8 km/h (3 Bft) NO 40 0 min 0 W/m 1,0 C -7,1 C 19,8 km/h (3 Bft)
14.11.2007 01:52 1,9 C 94 % 1004,5 hPa 0,0 l/m 17,0 km/h (3 Bft) N-NO 30 0 min 0 W/m 1,0 C -5,8 C 17,0 km/h (3 Bft)
14.11.2007 01:57 1,9 C 94 % 1004,5 hPa 0,0 l/m 16,5 km/h (3 Bft) NO 40 0 min 0 W/m 1,0 C -5,5 C 16,5 km/h (3 Bft)
14.11.2007 02:02 1,9 C 94 % 1005,5 hPa 0,0 l/m 18,8 km/h (3 Bft) NO 55 0 min 0 W/m 1,0 C -6,6 C 18,8 km/h (3 Bft)
14.11.2007 02:07 1,9 C 94 % 1005,5 hPa 0,0 l/m 24,6 km/h (4 Bft) NO 40 0 min 0 W/m 1,0 C -9,0 C 24,6 km/h (4 Bft)
14.11.2007 02:12 1,9 C 94 % 1005,5 hPa 0,0 l/m 16,1 km/h (3 Bft) NO 50 0 min 0 W/m 1,0 C -5,3 C 16,1 km/h (3 Bft)
14.11.2007 02:17 1,9 C 94 % 1005,5 hPa 0,0 l/m 15,3 km/h (3 Bft) NO 40 0 min 0 W/m 1,0 C -4,8 C 15,3 km/h (3 Bft)
14.11.2007 02:22 1,8 C 94 % 1005,5 hPa 0,0 l/m 13,3 km/h (3 Bft) NO 40 0 min 0 W/m 0,9 C -3,8 C 13,3 km/h (3 Bft)
14.11.2007 02:27 1,7 C 93 % 1005,5 hPa 0,0 l/m 11,9 km/h (2 Bft) NO 40 0 min 0 W/m 0,7 C -3,0 C 11,9 km/h (2 Bft)
14.11.2007 02:32 1,7 C 93 % 1005,5 hPa 0,0 l/m 14,3 km/h (3 Bft) NO 35 0 min 0 W/m 0,7 C -4,5 C 14,3 km/h (3 Bft)
14.11.2007 02:37 1,7 C 93 % 1005,5 hPa 0,0 l/m 17,8 km/h (3 Bft) NO 40 0 min 0 W/m 0,7 C -6,4 C 17,8 km/h (3 Bft)
14.11.2007 02:42 1,7 C 93 % 1005,5 hPa 0,0 l/m 18,4 km/h (3 Bft) NO 45 0 min 0 W/m 0,7 C -6,7 C 18,4 km/h (3 Bft)
14.11.2007 02:47 1,7 C 93 % 1005,5 hPa 0,0 l/m 14,5 km/h (3 Bft) NO 40 0 min 0 W/m 0,7 C -4,6 C 14,5 km/h (3 Bft)
14.11.2007 02:52 1,7 C 93 % 1005,5 hPa 0,0 l/m 19,7 km/h (3 Bft) NO 40 0 min 0 W/m 0,7 C -7,3 C 19,7 km/h (3 Bft)
14.11.2007 02:57 1,8 C 93 % 1005,5 hPa 0,0 l/m 18,2 km/h (3 Bft) NO 35 0 min 0 W/m 0,8 C -6,5 C 18,2 km/h (3 Bft)
14.11.2007 03:02 1,8 C 93 % 1005,5 hPa 0,0 l/m 11,5 km/h (2 Bft) NO 40 0 min 0 W/m 0,8 C -2,6 C 11,5 km/h (2 Bft)
14.11.2007 03:07 1,7 C 93 % 1005,5 hPa 0,0 l/m 18,4 km/h (3 Bft) NO 40 0 min 0 W/m 0,7 C -6,7 C 18,4 km/h (3 Bft)
14.11.2007 03:12 1,8 C 93 % 1005,5 hPa 0,0 l/m 15,0 km/h (3 Bft) NO 35 0 min 0 W/m 0,8 C -4,8 C 15,0 km/h (3 Bft)
14.11.2007 03:17 1,8 C 93 % 1005,5 hPa 0,0 l/m 20,9 km/h (4 Bft) NO 45 0 min 0 W/m 0,8 C -7,7 C 20,9 km/h (4 Bft)
14.11.2007 03:22 1,9 C 93 % 1005,5 hPa 0,0 l/m 20,6 km/h (4 Bft) NO 40 0 min 0 W/m 0,9 C -7,4 C 20,6 km/h (4 Bft)
14.11.2007 03:27 2,0 C 93 % 1005,5 hPa 0,0 l/m 22,5 km/h (4 Bft) NO 35 0 min 0 W/m 1,0 C -8,1 C 22,5 km/h (4 Bft)
14.11.2007 03:32 2,1 C 92 % 1005,5 hPa 0,0 l/m 16,5 km/h (3 Bft) N-NO 20 0 min 0 W/m 0,9 C -5,3 C 16,5 km/h (3 Bft)
14.11.2007 03:37 2,0 C 91 % 1006,5 hPa 0,0 l/m 13,8 km/h (3 Bft) NO 45 0 min 0 W/m 0,7 C -3,9 C 13,8 km/h (3 Bft)
14.11.2007 03:42 2,0 C 91 % 1006,5 hPa 0,0 l/m 20,1 km/h (4 Bft) NO 45 0 min 0 W/m 0,7 C -7,1 C 20,1 km/h (4 Bft)
14.11.2007 03:47 2,0 C 91 % 1006,5 hPa 0,0 l/m 17,4 km/h (3 Bft) NO 35 0 min 0 W/m 0,7 C -5,8 C 17,4 km/h (3 Bft)
14.11.2007 03:52 2,1 C 91 % 1006,5 hPa 0,0 l/m 16,1 km/h (3 Bft) NO 50 0 min 0 W/m 0,8 C -5,0 C 16,1 km/h (3 Bft)
14.11.2007 03:57 2,1 C 90 % 1006,5 hPa 0,0 l/m 23,6 km/h (4 Bft) NO 35 0 min 0 W/m 0,6 C -8,4 C 23,6 km/h (4 Bft)
14.11.2007 04:02 2,1 C 90 % 1006,5 hPa 0,0 l/m 11,5 km/h (2 Bft) N-NO 30 0 min 0 W/m 0,6 C -2,2 C 11,5 km/h (2 Bft)
14.11.2007 04:07 2,3 C 91 % 1006,5 hPa 0,0 l/m 18,7 km/h (3 Bft) NO 35 0 min 0 W/m 1,0 C -6,1 C 18,7 km/h (3 Bft)
14.11.2007 04:12 2,4 C 90 % 1006,5 hPa 0,0 l/m 18,8 km/h (3 Bft) NO 40 0 min 0 W/m 0,9 C -6,0 C 18,8 km/h (3 Bft)
14.11.2007 04:17 2,4 C 90 % 1006,5 hPa 0,0 l/m 25,3 km/h (4 Bft) NO 35 0 min 0 W/m 0,9 C -8,6 C 25,3 km/h (4 Bft)
14.11.2007 04:22 2,5 C 90 % 1006,5 hPa 0,0 l/m 17,7 km/h (3 Bft) NO 40 0 min 0 W/m 1,0 C -5,4 C 17,7 km/h (3 Bft)
14.11.2007 04:27 2,5 C 90 % 1006,5 hPa 0,0 l/m 21,4 km/h (4 Bft) NO 45 0 min 0 W/m 1,0 C -7,0 C 21,4 km/h (4 Bft)
14.11.2007 04:32 2,6 C 90 % 1006,5 hPa 0,0 l/m 20,3 km/h (4 Bft) N-NO 30 0 min 0 W/m 1,1 C -6,4 C 20,3 km/h (4 Bft)
14.11.2007 04:37 2,7 C 90 % 1006,5 hPa 0,0 l/m 29,0 km/h (5 Bft) N-NO 30 0 min 0 W/m 1,2 C -9,3 C 29,0 km/h (5 Bft)
14.11.2007 04:42 2,6 C 90 % 1006,5 hPa 0,0 l/m 22,5 km/h (4 Bft) NO 35 0 min 0 W/m 1,1 C -7,3 C 22,5 km/h (4 Bft)
14.11.2007 04:47 2,5 C 91 % 1006,5 hPa 0,0 l/m 21,3 km/h (4 Bft) N-NO 30 0 min 0 W/m 1,2 C -6,9 C 21,3 km/h (4 Bft)
14.11.2007 04:52 2,6 C 91 % 1006,5 hPa 0,0 l/m 25,0 km/h (4 Bft) NO 40 0 min 0 W/m 1,3 C -8,2 C 25,0 km/h (4 Bft)
14.11.2007 04:57 2,6 C 91 % 1006,5 hPa 0,0 l/m 18,7 km/h (3 Bft) N-NO 20 0 min 0 W/m 1,3 C -5,7 C 18,7 km/h (3 Bft)
14.11.2007 05:02 2,8 C 91 % 1006,5 hPa 0,0 l/m 19,6 km/h (3 Bft) N-NO 30 0 min 0 W/m 1,5 C -5,8 C 19,6 km/h (3 Bft)
14.11.2007 05:07 2,8 C 91 % 1006,5 hPa 0,0 l/m 24,6 km/h (4 Bft) N-NO 30 0 min 0 W/m 1,5 C -7,8 C 24,6 km/h (4 Bft)
14.11.2007 05:12 2,8 C 91 % 1006,5 hPa 0,0 l/m 25,3 km/h (4 Bft) NO 35 0 min 0 W/m 1,5 C -8,0 C 25,3 km/h (4 Bft)
14.11.2007 05:17 2,9 C 91 % 1006,5 hPa 0,0 l/m 21,4 km/h (4 Bft) NO 45 0 min 0 W/m 1,6 C -6,5 C 21,4 km/h (4 Bft)
14.11.2007 05:22 2,9 C 91 % 1007,5 hPa 0,0 l/m 20,8 km/h (4 Bft) NO 40 0 min 0 W/m 1,6 C -6,2 C 20,8 km/h (4 Bft)
14.11.2007 05:27 3,0 C 91 % 1007,5 hPa 0,0 l/m 18,0 km/h (3 Bft) NO 45 0 min 0 W/m 1,7 C -4,9 C 18,0 km/h (3 Bft)
14.11.2007 05:32 3,0 C 90 % 1007,5 hPa 0,0 l/m 20,6 km/h (4 Bft) NO 40 0 min 0 W/m 1,5 C -6,0 C 20,6 km/h (4 Bft)
14.11.2007 05:37 3,0 C 90 % 1007,5 hPa 0,0 l/m 19,3 km/h (3 Bft) N-NO 30 0 min 0 W/m 1,5 C -5,5 C 19,3 km/h (3 Bft)
14.11.2007 05:42 3,0 C 89 % 1007,5 hPa 0,0 l/m 18,2 km/h (3 Bft) NO 40 0 min 0 W/m 1,4 C -5,0 C 18,2 km/h (3 Bft)
14.11.2007 05:47 3,0 C 89 % 1007,5 hPa 0,0 l/m 19,6 km/h (3 Bft) NO 40 0 min 0 W/m 1,4 C -5,6 C 19,6 km/h (3 Bft)
14.11.2007 05:52 2,9 C 89 % 1007,5 hPa 0,0 l/m 24,2 km/h (4 Bft) NO 35 0 min 0 W/m 1,3 C -7,5 C 24,2 km/h (4 Bft)
14.11.2007 05:57 2,8 C 89 % 1007,5 hPa 0,0 l/m 16,5 km/h (3 Bft) NO 45 0 min 0 W/m 1,2 C -4,4 C 16,5 km/h (3 Bft)
14.11.2007 06:02 2,8 C 89 % 1007,5 hPa 0,0 l/m 20,8 km/h (4 Bft) NO 40 0 min 0 W/m 1,2 C -6,3 C 20,8 km/h (4 Bft)
14.11.2007 06:07 2,8 C 89 % 1007,5 hPa 0,0 l/m 21,8 km/h (4 Bft) NO 35 0 min 0 W/m 1,2 C -6,8 C 21,8 km/h (4 Bft)
14.11.2007 06:12 2,7 C 89 % 1007,5 hPa 0,0 l/m 23,8 km/h (4 Bft) NO 40 0 min 0 W/m 1,1 C -7,6 C 23,8 km/h (4 Bft)
14.11.2007 06:17 2,6 C 89 % 1007,5 hPa 0,0 l/m 21,0 km/h (4 Bft) N-NO 30 0 min 0 W/m 1,0 C -6,7 C 21,0 km/h (4 Bft)
14.11.2007 06:22 2,6 C 90 % 1007,5 hPa 0,0 l/m 25,5 km/h (4 Bft) N-NO 25 0 min 0 W/m 1,1 C -8,4 C 25,5 km/h (4 Bft)
14.11.2007 06:27 2,7 C 90 % 1007,5 hPa 0,0 l/m 20,2 km/h (4 Bft) NO 35 0 min 0 W/m 1,2 C -6,2 C 20,2 km/h (4 Bft)
14.11.2007 06:32 2,6 C 90 % 1007,5 hPa 0,0 l/m 27,0 km/h (5 Bft) NO 35 0 min 0 W/m 1,1 C -8,9 C 27,0 km/h (5 Bft)
14.11.2007 06:37 2,5 C 90 % 1007,5 hPa 0,0 l/m 24,1 km/h (4 Bft) NO 35 0 min 0 W/m 1,0 C -8,0 C 24,1 km/h (4 Bft)
14.11.2007 06:42 2,3 C 90 % 1007,5 hPa 0,0 l/m 23,1 km/h (4 Bft) NO 35 0 min 0 W/m 0,8 C -7,9 C 23,1 km/h (4 Bft)
14.11.2007 06:47 2,3 C 90 % 1007,5 hPa 0,0 l/m 21,6 km/h (4 Bft) N-NO 30 0 min 0 W/m 0,8 C -7,3 C 21,6 km/h (4 Bft)
14.11.2007 06:52 2,4 C 90 % 1008,5 hPa 0,0 l/m 21,6 km/h (4 Bft) N-NO 25 0 min 0 W/m 0,9 C -7,2 C 21,6 km/h (4 Bft)
14.11.2007 06:57 2,4 C 91 % 1008,5 hPa 0,0 l/m 25,1 km/h (4 Bft) N-NO 25 0 min 0 W/m 1,1 C -8,5 C 25,1 km/h (4 Bft)
14.11.2007 07:02 2,5 C 91 % 1008,5 hPa 0,0 l/m 18,3 km/h (3 Bft) N-NO 25 0 min 0 W/m 1,2 C -5,6 C 18,3 km/h (3 Bft)
14.11.2007 07:07 2,4 C 90 % 1008,5 hPa 0,0 l/m 24,6 km/h (4 Bft) NO 45 0 min 0 W/m 0,9 C -8,3 C 24,6 km/h (4 Bft)
14.11.2007 07:12 2,3 C 90 % 1008,5 hPa 0,0 l/m 26,0 km/h (4 Bft) NO 35 0 min 0 W/m 0,8 C -8,9 C 26,0 km/h (4 Bft)
14.11.2007 07:17 2,2 C 90 % 1008,5 hPa 0,0 l/m 27,6 km/h (5 Bft) N-NO 25 0 min 0 W/m 0,7 C -9,6 C 27,6 km/h (5 Bft)
14.11.2007 07:22 2,3 C 90 % 1008,5 hPa 0,0 l/m 34,4 km/h (5 Bft) NO 35 0 min 0 W/m 0,8 C -11,3 C 34,4 km/h (5 Bft)
14.11.2007 07:27 2,3 C 91 % 1008,5 hPa 0,0 l/m 12,5 km/h (2 Bft) NO 40 0 min 0 W/m 1,0 C -2,7 C 12,5 km/h (2 Bft)
14.11.2007 07:32 2,3 C 90 % 1008,5 hPa 0,0 l/m 26,5 km/h (4 Bft) NO 40 0 min 0 W/m 0,8 C -9,1 C 26,5 km/h (4 Bft)
14.11.2007 07:37 2,3 C 90 % 1008,5 hPa 0,0 l/m 22,1 km/h (4 Bft) N-NO 25 0 min 0 W/m 0,8 C -7,5 C 22,1 km/h (4 Bft)
14.11.2007 07:42 2,3 C 90 % 1008,5 hPa 0,3 l/m 25,1 km/h (4 Bft) N-NO 30 0 min 0 W/m 0,8 C -8,6 C 25,1 km/h (4 Bft)
14.11.2007 07:47 2,1 C 90 % 1008,5 hPa 0,0 l/m 29,3 km/h (5 Bft) NO 35 0 min 0 W/m 0,6 C -10,3 C 29,3 km/h (5 Bft)
14.11.2007 07:52 2,1 C 90 % 1009,5 hPa 0,0 l/m 20,6 km/h (4 Bft) N-NO 20 0 min 0 W/m 0,6 C -7,2 C 20,6 km/h (4 Bft)
14.11.2007 07:57 2,1 C 90 % 1009,5 hPa 0,0 l/m 23,0 km/h (4 Bft) NO 45 0 min 0 W/m 0,6 C -8,1 C 23,0 km/h (4 Bft)
14.11.2007 08:02 2,1 C 91 % 1009,5 hPa 0,0 l/m 18,6 km/h (3 Bft) NO 35 0 min 0 W/m 0,8 C -6,3 C 18,6 km/h (3 Bft)
14.11.2007 08:07 2,0 C 90 % 1009,5 hPa 0,0 l/m 25,4 km/h (4 Bft) NO 45 0 min 0 W/m 0,5 C -9,1 C 25,4 km/h (4 Bft)
14.11.2007 08:12 1,9 C 90 % 1009,5 hPa 0,0 l/m 18,3 km/h (3 Bft) NO 35 0 min 0 W/m 0,4 C -6,4 C 18,3 km/h (3 Bft)
14.11.2007 08:17 1,8 C 91 % 1009,5 hPa 0,0 l/m 28,3 km/h (5 Bft) NO 35 0 min 0 W/m 0,5 C -10,4 C 28,3 km/h (5 Bft)
14.11.2007 08:22 1,7 C 91 % 1009,5 hPa 0,0 l/m 27,3 km/h (5 Bft) N-NO 30 0 min 0 W/m 0,4 C -10,2 C 27,3 km/h (5 Bft)
14.11.2007 08:27 1,6 C 91 % 1009,5 hPa 0,0 l/m 16,5 km/h (3 Bft) N-NO 25 0 min 0 W/m 0,3 C -5,9 C 16,5 km/h (3 Bft)
14.11.2007 08:32 1,6 C 91 % 1009,5 hPa 0,0 l/m 16,5 km/h (3 Bft) NO 35 0 min 0 W/m 0,3 C -5,9 C 16,5 km/h (3 Bft)
14.11.2007 08:37 1,6 C 92 % 1009,5 hPa 0,0 l/m 20,9 km/h (4 Bft) N-NO 25 0 min 0 W/m 0,4 C -8,0 C 20,9 km/h (4 Bft)
14.11.2007 08:42 1,6 C 92 % 1009,5 hPa 0,0 l/m 21,0 km/h (4 Bft) NO 35 0 min 0 W/m 0,4 C -8,0 C 21,0 km/h (4 Bft)
14.11.2007 08:47 1,6 C 92 % 1009,5 hPa 0,0 l/m 19,0 km/h (3 Bft) N-NO 30 0 min 0 W/m 0,4 C -7,1 C 19,0 km/h (3 Bft)
14.11.2007 08:52 1,7 C 92 % 1009,5 hPa 0,0 l/m 21,6 km/h (4 Bft) NO 35 0 min 0 W/m 0,5 C -8,1 C 21,6 km/h (4 Bft)
14.11.2007 08:57 1,7 C 92 % 1009,5 hPa 0,0 l/m 23,6 km/h (4 Bft) NO 40 0 min 0 W/m 0,5 C -8,9 C 23,6 km/h (4 Bft)
14.11.2007 09:02 1,7 C 92 % 1009,5 hPa 0,0 l/m 20,1 km/h (4 Bft) N-NO 30 0 min 0 W/m 0,5 C -7,5 C 20,1 km/h (4 Bft)
14.11.2007 09:07 1,7 C 92 % 1010,5 hPa 0,0 l/m 24,0 km/h (4 Bft) N-NO 30 0 min 0 W/m 0,5 C -9,1 C 24,0 km/h (4 Bft)
14.11.2007 09:12 1,7 C 92 % 1010,5 hPa 0,0 l/m 23,5 km/h (4 Bft) N-NO 30 0 min 0 W/m 0,5 C -8,9 C 23,5 km/h (4 Bft)
14.11.2007 09:17 1,7 C 92 % 1010,5 hPa 0,0 l/m 29,2 km/h (5 Bft) NO 35 0 min 0 W/m 0,5 C -10,8 C 29,2 km/h (5 Bft)
14.11.2007 09:22 1,7 C 92 % 1010,5 hPa 0,0 l/m 19,5 km/h (3 Bft) N-NO 25 0 min 0 W/m 0,5 C -7,2 C 19,5 km/h (3 Bft)
14.11.2007 09:27 1,8 C 92 % 1010,5 hPa 0,0 l/m 20,5 km/h (4 Bft) NO 35 0 min 0 W/m 0,6 C -7,5 C 20,5 km/h (4 Bft)
14.11.2007 09:32 1,8 C 92 % 1010,5 hPa 0,0 l/m 16,8 km/h (3 Bft) NO 35 0 min 0 W/m 0,6 C -5,8 C 16,8 km/h (3 Bft)
14.11.2007 09:37 1,9 C 92 % 1010,5 hPa 0,0 l/m 18,4 km/h (3 Bft) NO 35 0 min 0 W/m 0,7 C -6,4 C 18,4 km/h (3 Bft)
14.11.2007 09:42 2,0 C 92 % 1010,5 hPa 0,0 l/m 18,6 km/h (3 Bft) N-NO 30 0 min 0 W/m 0,8 C -6,4 C 18,6 km/h (3 Bft)
14.11.2007 09:47 2,0 C 92 % 1010,5 hPa 0,0 l/m 17,6 km/h (3 Bft) N-NO 30 0 min 0 W/m 0,8 C -5,9 C 17,6 km/h (3 Bft)
14.11.2007 09:52 2,0 C 91 % 1010,5 hPa 0,0 l/m 17,9 km/h (3 Bft) NO 40 0 min 0 W/m 0,7 C -6,1 C 17,9 km/h (3 Bft)
14.11.2007 09:57 2,1 C 91 % 1010,5 hPa 0,0 l/m 16,4 km/h (3 Bft) NO 40 0 min 0 W/m 0,8 C -5,2 C 16,4 km/h (3 Bft)
14.11.2007 10:02 2,3 C 91 % 1010,5 hPa 0,0 l/m 16,6 km/h (3 Bft) NO 45 0 min 0 W/m 1,0 C -5,1 C 16,6 km/h (3 Bft)
14.11.2007 10:07 2,5 C 91 % 1010,5 hPa 0,0 l/m 15,8 km/h (3 Bft) NO 35 0 min 0 W/m 1,2 C -4,4 C 15,8 km/h (3 Bft)
14.11.2007 10:12 2,7 C 90 % 1010,5 hPa 0,0 l/m 20,1 km/h (4 Bft) NO 45 0 min 0 W/m 1,2 C -6,2 C 20,1 km/h (4 Bft)
14.11.2007 10:17 2,9 C 90 % 1011,5 hPa 0,0 l/m 21,4 km/h (4 Bft) N-NO 25 0 min 0 W/m 1,4 C -6,5 C 21,4 km/h (4 Bft)
14.11.2007 10:22 2,9 C 88 % 1011,5 hPa 0,0 l/m 20,8 km/h (4 Bft) N-NO 30 0 min 0 W/m 1,1 C -6,2 C 20,8 km/h (4 Bft)
14.11.2007 10:27 3,1 C 88 % 1011,5 hPa 0,0 l/m 18,0 km/h (3 Bft) N-NO 30 0 min 0 W/m 1,3 C -4,7 C 18,0 km/h (3 Bft)
14.11.2007 10:32 3,1 C 87 % 1011,5 hPa 0,0 l/m 17,7 km/h (3 Bft) NO 40 0 min 0 W/m 1,2 C -4,6 C 17,7 km/h (3 Bft)
14.11.2007 10:37 3,1 C 86 % 1011,5 hPa 0,0 l/m 23,5 km/h (4 Bft) N-NO 25 0 min 0 W/m 1,0 C -7,0 C 23,5 km/h (4 Bft)
14.11.2007 10:42 3,2 C 86 % 1011,5 hPa 0,0 l/m 22,0 km/h (4 Bft) NO 35 0 min 0 W/m 1,1 C -6,3 C 22,0 km/h (4 Bft)
14.11.2007 10:47 3,3 C 86 % 1011,5 hPa 0,0 l/m 25,0 km/h (4 Bft) N-NO 20 0 min 0 W/m 1,2 C -7,2 C 25,0 km/h (4 Bft)
14.11.2007 10:52 3,3 C 86 % 1011,5 hPa 0,0 l/m 21,3 km/h (4 Bft) N-NO 30 0 min 0 W/m 1,2 C -5,9 C 21,3 km/h (4 Bft)
14.11.2007 10:57 3,5 C 85 % 1011,5 hPa 0,0 l/m 21,6 km/h (4 Bft) NO 40 0 min 0 W/m 1,2 C -5,8 C 21,6 km/h (4 Bft)
14.11.2007 11:02 3,5 C 85 % 1011,5 hPa 0,0 l/m 22,1 km/h (4 Bft) NO 35 0 min 0 W/m 1,2 C -5,9 C 22,1 km/h (4 Bft)
14.11.2007 11:07 3,6 C 85 % 1011,5 hPa 0,0 l/m 21,4 km/h (4 Bft) NO 40 0 min 0 W/m 1,3 C -5,5 C 21,4 km/h (4 Bft)
14.11.2007 11:12 3,7 C 84 % 1011,5 hPa 0,0 l/m 23,0 km/h (4 Bft) N-NO 20 0 min 0 W/m 1,3 C -6,0 C 23,0 km/h (4 Bft)
14.11.2007 11:17 3,7 C 84 % 1011,5 hPa 0,0 l/m 23,0 km/h (4 Bft) NO 45 0 min 0 W/m 1,3 C -6,0 C 23,0 km/h (4 Bft)
14.11.2007 11:22 3,8 C 84 % 1011,5 hPa 0,0 l/m 19,6 km/h (3 Bft) N-NO 25 0 min 0 W/m 1,4 C -4,6 C 19,6 km/h (3 Bft)
14.11.2007 11:27 3,9 C 84 % 1011,5 hPa 0,0 l/m 22,0 km/h (4 Bft) NO 35 0 min 0 W/m 1,4 C -5,4 C 22,0 km/h (4 Bft)
14.11.2007 11:32 3,9 C 83 % 1011,5 hPa 0,0 l/m 19,3 km/h (3 Bft) NO 35 0 min 0 W/m 1,3 C -4,3 C 19,3 km/h (3 Bft)
14.11.2007 11:37 3,9 C 84 % 1011,5 hPa 0,0 l/m 19,5 km/h (3 Bft) N-NO 30 0 min 0 W/m 1,4 C -4,4 C 19,5 km/h (3 Bft)
14.11.2007 11:42 3,9 C 84 % 1011,5 hPa 0,0 l/m 21,0 km/h (4 Bft) NO 35 0 min 0 W/m 1,4 C -5,0 C 21,0 km/h (4 Bft)
14.11.2007 11:47 3,9 C 83 % 1011,5 hPa 0,0 l/m 24,8 km/h (4 Bft) NO 45 0 min 0 W/m 1,3 C -6,4 C 24,8 km/h (4 Bft)
14.11.2007 11:52 3,8 C 83 % 1011,5 hPa 0,0 l/m 16,0 km/h (3 Bft) N-NO 30 0 min 0 W/m 1,2 C -2,9 C 16,0 km/h (3 Bft)
14.11.2007 11:57 3,8 C 83 % 1011,5 hPa 0,0 l/m 28,4 km/h (5 Bft) NO 35 0 min 0 W/m 1,2 C -7,6 C 28,4 km/h (5 Bft)
14.11.2007 12:02 3,9 C 84 % 1011,5 hPa 0,0 l/m 20,6 km/h (4 Bft) N-NO 30 0 min 0 W/m 1,4 C -4,8 C 20,6 km/h (4 Bft)
14.11.2007 12:07 3,8 C 83 % 1011,5 hPa 0,0 l/m 21,7 km/h (4 Bft) NO 45 0 min 0 W/m 1,2 C -5,4 C 21,7 km/h (4 Bft)
14.11.2007 12:12 3,8 C 84 % 1012,5 hPa 0,0 l/m 22,0 km/h (4 Bft) NO 40 0 min 0 W/m 1,4 C -5,5 C 22,0 km/h (4 Bft)
14.11.2007 12:17 3,8 C 83 % 1012,5 hPa 0,0 l/m 19,7 km/h (3 Bft) N-NO 25 0 min 0 W/m 1,2 C -4,6 C 19,7 km/h (3 Bft)
14.11.2007 12:22 3,7 C 83 % 1012,5 hPa 0,0 l/m 18,5 km/h (3 Bft) NO 45 0 min 0 W/m 1,1 C -4,2 C 18,5 km/h (3 Bft)
14.11.2007 12:27 3,9 C 84 % 1012,5 hPa 0,0 l/m 25,3 km/h (4 Bft) N-NO 25 0 min 0 W/m 1,4 C -6,5 C 25,3 km/h (4 Bft)
14.11.2007 12:32 3,9 C 83 % 1012,5 hPa 0,0 l/m 18,9 km/h (3 Bft) N-NO 30 0 min 0 W/m 1,3 C -4,1 C 18,9 km/h (3 Bft)
14.11.2007 12:37 3,9 C 83 % 1012,5 hPa 0,0 l/m 19,3 km/h (3 Bft) N-NO 25 0 min 0 W/m 1,3 C -4,3 C 19,3 km/h (3 Bft)
14.11.2007 12:42 3,9 C 83 % 1012,5 hPa 0,0 l/m 23,5 km/h (4 Bft) N-NO 25 0 min 0 W/m 1,3 C -5,9 C 23,5 km/h (4 Bft)
14.11.2007 12:47 3,9 C 83 % 1012,5 hPa 0,0 l/m 15,3 km/h (3 Bft) N-NO 30 0 min 0 W/m 1,3 C -2,4 C 15,3 km/h (3 Bft)
14.11.2007 12:52 3,9 C 83 % 1012,5 hPa 0,0 l/m 20,5 km/h (4 Bft) N-NO 30 0 min 0 W/m 1,3 C -4,8 C 20,5 km/h (4 Bft)
14.11.2007 12:57 3,9 C 83 % 1012,5 hPa 0,0 l/m 21,6 km/h (4 Bft) N-NO 30 0 min 0 W/m 1,3 C -5,2 C 21,6 km/h (4 Bft)
14.11.2007 13:02 3,9 C 83 % 1012,5 hPa 0,0 l/m 23,7 km/h (4 Bft) N-NO 20 0 min 0 W/m 1,3 C -6,0 C 23,7 km/h (4 Bft)
14.11.2007 13:07 3,9 C 83 % 1012,5 hPa 0,0 l/m 23,1 km/h (4 Bft) N-NO 30 0 min 0 W/m 1,3 C -5,8 C 23,1 km/h (4 Bft)
14.11.2007 13:12 3,8 C 83 % 1012,5 hPa 0,0 l/m 22,0 km/h (4 Bft) NO 35 0 min 0 W/m 1,2 C -5,5 C 22,0 km/h (4 Bft)
14.11.2007 13:17 3,9 C 83 % 1012,5 hPa 0,0 l/m 24,5 km/h (4 Bft) NO 35 0 min 0 W/m 1,3 C -6,3 C 24,5 km/h (4 Bft)
14.11.2007 13:22 3,9 C 82 % 1012,5 hPa 0,0 l/m 24,6 km/h (4 Bft) NO 35 0 min 0 W/m 1,1 C -6,3 C 24,6 km/h (4 Bft)
14.11.2007 13:27 3,8 C 82 % 1012,5 hPa 0,0 l/m 24,0 km/h (4 Bft) NO 45 0 min 0 W/m 1,0 C -6,2 C 24,0 km/h (4 Bft)
14.11.2007 13:32 3,8 C 82 % 1012,5 hPa 0,0 l/m 19,8 km/h (3 Bft) N-NO 30 0 min 0 W/m 1,0 C -4,6 C 19,8 km/h (3 Bft)
14.11.2007 13:37 3,8 C 82 % 1012,5 hPa 0,0 l/m 24,1 km/h (4 Bft) NO 35 0 min 0 W/m 1,0 C -6,3 C 24,1 km/h (4 Bft)
14.11.2007 13:42 3,8 C 82 % 1012,5 hPa 0,0 l/m 24,1 km/h (4 Bft) NO 35 0 min 0 W/m 1,0 C -6,3 C 24,1 km/h (4 Bft)
14.11.2007 13:47 3,8 C 83 % 1012,5 hPa 0,0 l/m 19,0 km/h (3 Bft) NO 40 0 min 0 W/m 1,2 C -4,3 C 19,0 km/h (3 Bft)
14.11.2007 13:52 3,8 C 82 % 1012,5 hPa 0,0 l/m 21,4 km/h (4 Bft) NO 35 0 min 0 W/m 1,0 C -5,3 C 21,4 km/h (4 Bft)
14.11.2007 13:57 3,8 C 82 % 1012,5 hPa 0,0 l/m 20,3 km/h (4 Bft) N-NO 20 0 min 0 W/m 1,0 C -4,8 C 20,3 km/h (4 Bft)
14.11.2007 14:02 3,9 C 82 % 1012,5 hPa 0,0 l/m 17,2 km/h (3 Bft) NO 40 0 min 0 W/m 1,1 C -3,4 C 17,2 km/h (3 Bft)
14.11.2007 14:07 3,9 C 82 % 1012,5 hPa 0,0 l/m 20,6 km/h (4 Bft) NO 45 0 min 0 W/m 1,1 C -4,8 C 20,6 km/h (4 Bft)
14.11.2007 14:12 3,9 C 82 % 1012,5 hPa 0,0 l/m 17,4 km/h (3 Bft) NO 35 0 min 0 W/m 1,1 C -3,5 C 17,4 km/h (3 Bft)
14.11.2007 14:17 3,9 C 82 % 1012,5 hPa 0,0 l/m 24,4 km/h (4 Bft) N-NO 25 0 min 0 W/m 1,1 C -6,2 C 24,4 km/h (4 Bft)
14.11.2007 14:22 3,8 C 82 % 1012,5 hPa 0,0 l/m 23,6 km/h (4 Bft) NO 35 0 min 0 W/m 1,0 C -6,1 C 23,6 km/h (4 Bft)
14.11.2007 14:27 3,8 C 82 % 1012,5 hPa 0,0 l/m 19,6 km/h (3 Bft) N-NO 30 0 min 0 W/m 1,0 C -4,6 C 19,6 km/h (3 Bft)
14.11.2007 14:32 3,8 C 82 % 1013,5 hPa 0,0 l/m 11,3 km/h (2 Bft) NO 35 0 min 0 W/m 1,0 C -0,2 C 11,3 km/h (2 Bft)
14.11.2007 14:37 3,8 C 82 % 1013,5 hPa 0,0 l/m 21,6 km/h (4 Bft) NO 45 0 min 0 W/m 1,0 C -5,4 C 21,6 km/h (4 Bft)
14.11.2007 14:42 3,7 C 82 % 1013,5 hPa 0,0 l/m 27,9 km/h (5 Bft) NO 40 0 min 0 W/m 0,9 C -7,6 C 27,9 km/h (5 Bft)
14.11.2007 14:47 3,7 C 82 % 1013,5 hPa 0,0 l/m 18,1 km/h (3 Bft) N-NO 25 0 min 0 W/m 0,9 C -4,0 C 18,1 km/h (3 Bft)
14.11.2007 14:52 3,7 C 82 % 1013,5 hPa 0,0 l/m 22,0 km/h (4 Bft) N-NO 30 0 min 0 W/m 0,9 C -5,6 C 22,0 km/h (4 Bft)
14.11.2007 14:57 3,6 C 82 % 1013,5 hPa 0,0 l/m 23,3 km/h (4 Bft) NO 40 0 min 0 W/m 0,8 C -6,3 C 23,3 km/h (4 Bft)
14.11.2007 15:02 3,5 C 82 % 1013,5 hPa 0,0 l/m 19,0 km/h (3 Bft) N-NO 30 0 min 0 W/m 0,7 C -4,7 C 19,0 km/h (3 Bft)
14.11.2007 15:07 3,4 C 82 % 1013,5 hPa 0,0 l/m 26,2 km/h (4 Bft) NO 35 0 min 0 W/m 0,6 C -7,5 C 26,2 km/h (4 Bft)
14.11.2007 15:12 3,4 C 82 % 1013,5 hPa 0,0 l/m 20,3 km/h (4 Bft) NO 45 0 min 0 W/m 0,6 C -5,4 C 20,3 km/h (4 Bft)
14.11.2007 15:17 3,4 C 82 % 1013,5 hPa 0,0 l/m 24,1 km/h (4 Bft) NO 40 0 min 0 W/m 0,6 C -6,8 C 24,1 km/h (4 Bft)
14.11.2007 15:22 3,2 C 82 % 1013,5 hPa 0,0 l/m 21,9 km/h (4 Bft) NO 35 0 min 0 W/m 0,4 C -6,3 C 21,9 km/h (4 Bft)
14.11.2007 15:27 3,1 C 82 % 1013,5 hPa 0,0 l/m 21,0 km/h (4 Bft) N-NO 25 0 min 0 W/m 0,3 C -6,0 C 21,0 km/h (4 Bft)
14.11.2007 15:32 3,1 C 82 % 1013,5 hPa 0,0 l/m 28,6 km/h (5 Bft) NO 35 0 min 0 W/m 0,3 C -8,6 C 28,6 km/h (5 Bft)
14.11.2007 15:37 3,1 C 82 % 1013,5 hPa 0,0 l/m 23,2 km/h (4 Bft) N-NO 30 0 min 0 W/m 0,3 C -6,9 C 23,2 km/h (4 Bft)
14.11.2007 15:42 3,1 C 82 % 1013,5 hPa 0,0 l/m 21,0 km/h (4 Bft) NO 35 0 min 0 W/m 0,3 C -6,0 C 21,0 km/h (4 Bft)
14.11.2007 15:47 3,0 C 82 % 1013,5 hPa 0,0 l/m 16,5 km/h (3 Bft) NO 45 0 min 0 W/m 0,2 C -4,1 C 16,5 km/h (3 Bft)
14.11.2007 15:52 3,1 C 82 % 1013,5 hPa 0,0 l/m 19,6 km/h (3 Bft) NO 35 0 min 0 W/m 0,3 C -5,5 C 19,6 km/h (3 Bft)
14.11.2007 15:57 3,0 C 81 % 1013,5 hPa 0,0 l/m 28,0 km/h (5 Bft) N-NO 30 0 min 0 W/m 0,1 C -8,6 C 28,0 km/h (5 Bft)
14.11.2007 16:02 2,9 C 82 % 1013,5 hPa 0,0 l/m 21,0 km/h (4 Bft) N-NO 30 0 min 0 W/m 0,1 C -6,3 C 21,0 km/h (4 Bft)
14.11.2007 16:07 2,9 C 82 % 1014,5 hPa 0,0 l/m 17,0 km/h (3 Bft) NO 35 0 min 0 W/m 0,1 C -4,5 C 17,0 km/h (3 Bft)
14.11.2007 16:12 2,7 C 81 % 1014,5 hPa 0,0 l/m 23,2 km/h (4 Bft) NO 35 0 min 0 W/m -0,2 C -7,4 C 23,2 km/h (4 Bft)
14.11.2007 16:17 2,7 C 81 % 1014,5 hPa 0,0 l/m 20,1 km/h (4 Bft) N-NO 25 0 min 0 W/m -0,2 C -6,2 C 20,1 km/h (4 Bft)
14.11.2007 16:22 2,7 C 82 % 1014,5 hPa 0,0 l/m 24,3 km/h (4 Bft) N-NO 25 0 min 0 W/m -0,1 C -7,8 C 24,3 km/h (4 Bft)
14.11.2007 16:27 2,7 C 82 % 1014,5 hPa 0,0 l/m 20,9 km/h (4 Bft) NO 35 0 min 0 W/m -0,1 C -6,5 C 20,9 km/h (4 Bft)
14.11.2007 16:32 2,7 C 82 % 1014,5 hPa 0,0 l/m 26,2 km/h (4 Bft) NO 35 0 min 0 W/m -0,1 C -8,5 C 26,2 km/h (4 Bft)
14.11.2007 16:37 2,6 C 82 % 1014,5 hPa 0,0 l/m 20,7 km/h (4 Bft) NO 35 0 min 0 W/m -0,2 C -6,6 C 20,7 km/h (4 Bft)
14.11.2007 16:42 2,6 C 82 % 1014,5 hPa 0,0 l/m 24,2 km/h (4 Bft) N-NO 25 0 min 0 W/m -0,2 C -7,9 C 24,2 km/h (4 Bft)
14.11.2007 16:47 2,7 C 82 % 1014,5 hPa 0,0 l/m 24,2 km/h (4 Bft) N-NO 25 0 min 0 W/m -0,1 C -7,8 C 24,2 km/h (4 Bft)
14.11.2007 16:52 2,6 C 81 % 1014,5 hPa 0,0 l/m 22,4 km/h (4 Bft) N-NO 25 0 min 0 W/m -0,3 C -7,2 C 22,4 km/h (4 Bft)
14.11.2007 16:57 2,6 C 81 % 1014,5 hPa 0,0 l/m 22,9 km/h (4 Bft) NO 35 0 min 0 W/m -0,3 C -7,4 C 22,9 km/h (4 Bft)
14.11.2007 17:02 2,7 C 81 % 1014,5 hPa 0,0 l/m 18,5 km/h (3 Bft) NO 45 0 min 0 W/m -0,2 C -5,5 C 18,5 km/h (3 Bft)
14.11.2007 17:07 2,7 C 81 % 1014,5 hPa 0,0 l/m 19,1 km/h (3 Bft) NO 40 0 min 0 W/m -0,2 C -5,7 C 19,1 km/h (3 Bft)
14.11.2007 17:12 2,5 C 81 % 1014,5 hPa 0,0 l/m 22,1 km/h (4 Bft) NO 35 0 min 0 W/m -0,4 C -7,3 C 22,1 km/h (4 Bft)
14.11.2007 17:17 2,4 C 81 % 1014,5 hPa 0,0 l/m 20,3 km/h (4 Bft) NO 40 0 min 0 W/m -0,5 C -6,7 C 20,3 km/h (4 Bft)
14.11.2007 17:22 2,4 C 81 % 1014,5 hPa 0,0 l/m 22,5 km/h (4 Bft) NO 35 0 min 0 W/m -0,5 C -7,6 C 22,5 km/h (4 Bft)
14.11.2007 17:27 2,4 C 81 % 1014,5 hPa 0,0 l/m 21,0 km/h (4 Bft) NO 35 0 min 0 W/m -0,5 C -7,0 C 21,0 km/h (4 Bft)
14.11.2007 17:32 2,3 C 81 % 1014,5 hPa 0,0 l/m 17,6 km/h (3 Bft) N-NO 25 0 min 0 W/m -0,6 C -5,6 C 17,6 km/h (3 Bft)
14.11.2007 17:37 2,2 C 81 % 1014,5 hPa 0,0 l/m 17,6 km/h (3 Bft) NO 45 0 min 0 W/m -0,7 C -5,7 C 17,6 km/h (3 Bft)
14.11.2007 17:42 2,2 C 81 % 1014,5 hPa 0,0 l/m 15,4 km/h (3 Bft) NO 35 0 min 0 W/m -0,7 C -4,5 C 15,4 km/h (3 Bft)
14.11.2007 17:47 2,2 C 82 % 1015,5 hPa 0,0 l/m 16,3 km/h (3 Bft) N-NO 30 0 min 0 W/m -0,5 C -5,0 C 16,3 km/h (3 Bft)
14.11.2007 17:52 2,2 C 82 % 1015,5 hPa 0,0 l/m 17,1 km/h (3 Bft) NO 45 0 min 0 W/m -0,5 C -5,4 C 17,1 km/h (3 Bft)
14.11.2007 17:57 2,2 C 82 % 1015,5 hPa 0,0 l/m 19,5 km/h (3 Bft) NO 35 0 min 0 W/m -0,5 C -6,6 C 19,5 km/h (3 Bft)
14.11.2007 18:02 2,2 C 82 % 1015,5 hPa 0,0 l/m 16,8 km/h (3 Bft) NO 40 0 min 0 W/m -0,5 C -5,3 C 16,8 km/h (3 Bft)
14.11.2007 18:07 2,2 C 82 % 1015,5 hPa 0,0 l/m 12,3 km/h (2 Bft) NO 45 0 min 0 W/m -0,5 C -2,7 C 12,3 km/h (2 Bft)
14.11.2007 18:12 2,2 C 83 % 1015,5 hPa 0,0 l/m 16,5 km/h (3 Bft) NO 40 0 min 0 W/m -0,4 C -5,1 C 16,5 km/h (3 Bft)
14.11.2007 18:17 2,3 C 82 % 1015,5 hPa 0,0 l/m 16,3 km/h (3 Bft) NO 35 0 min 0 W/m -0,4 C -4,9 C 16,3 km/h (3 Bft)
14.11.2007 18:22 2,4 C 82 % 1015,5 hPa 0,0 l/m 15,8 km/h (3 Bft) NO 35 0 min 0 W/m -0,4 C -4,5 C 15,8 km/h (3 Bft)
14.11.2007 18:27 2,4 C 82 % 1015,5 hPa 0,0 l/m 17,8 km/h (3 Bft) NO 45 0 min 0 W/m -0,4 C -5,5 C 17,8 km/h (3 Bft)
14.11.2007 18:32 2,4 C 81 % 1015,5 hPa 0,0 l/m 19,0 km/h (3 Bft) NO 35 0 min 0 W/m -0,5 C -6,1 C 19,0 km/h (3 Bft)
14.11.2007 18:37 2,3 C 81 % 1015,5 hPa 0,0 l/m 17,1 km/h (3 Bft) NO 40 0 min 0 W/m -0,6 C -5,3 C 17,1 km/h (3 Bft)
14.11.2007 18:42 2,3 C 81 % 1015,5 hPa 0,0 l/m 20,4 km/h (4 Bft) NO 50 0 min 0 W/m -0,6 C -6,8 C 20,4 km/h (4 Bft)
14.11.2007 18:47 2,2 C 82 % 1015,5 hPa 0,0 l/m 19,5 km/h (3 Bft) N-NO 30 0 min 0 W/m -0,5 C -6,6 C 19,5 km/h (3 Bft)
14.11.2007 18:52 2,2 C 82 % 1015,5 hPa 0,0 l/m 21,2 km/h (4 Bft) NO 45 0 min 0 W/m -0,5 C -7,3 C 21,2 km/h (4 Bft)
14.11.2007 18:57 2,2 C 82 % 1015,5 hPa 0,0 l/m 21,9 km/h (4 Bft) NO 35 0 min 0 W/m -0,5 C -7,6 C 21,9 km/h (4 Bft)
14.11.2007 19:02 2,2 C 82 % 1015,5 hPa 0,0 l/m 19,3 km/h (3 Bft) NO 35 0 min 0 W/m -0,5 C -6,5 C 19,3 km/h (3 Bft)
14.11.2007 19:07 2,2 C 82 % 1016,5 hPa 0,0 l/m 18,9 km/h (3 Bft) NO 40 0 min 0 W/m -0,5 C -6,3 C 18,9 km/h (3 Bft)
14.11.2007 19:12 2,2 C 83 % 1016,5 hPa 0,0 l/m 16,3 km/h (3 Bft) NO 35 0 min 0 W/m -0,4 C -5,0 C 16,3 km/h (3 Bft)
14.11.2007 19:17 2,1 C 83 % 1016,5 hPa 0,0 l/m 14,2 km/h (3 Bft) NO 35 0 min 0 W/m -0,5 C -4,0 C 14,2 km/h (3 Bft)
14.11.2007 19:22 2,2 C 83 % 1016,5 hPa 0,0 l/m 17,8 km/h (3 Bft) NO 40 0 min 0 W/m -0,4 C -5,8 C 17,8 km/h (3 Bft)
14.11.2007 19:27 2,2 C 83 % 1016,5 hPa 0,0 l/m 21,4 km/h (4 Bft) NO 35 0 min 0 W/m -0,4 C -7,4 C 21,4 km/h (4 Bft)
14.11.2007 19:32 2,2 C 83 % 1016,5 hPa 0,0 l/m 16,6 km/h (3 Bft) NO 45 0 min 0 W/m -0,4 C -5,2 C 16,6 km/h (3 Bft)
14.11.2007 19:37 2,2 C 83 % 1016,5 hPa 0,0 l/m 19,5 km/h (3 Bft) NO 35 0 min 0 W/m -0,4 C -6,6 C 19,5 km/h (3 Bft)
14.11.2007 19:42 2,1 C 84 % 1016,5 hPa 0,0 l/m 19,4 km/h (3 Bft) NO 45 0 min 0 W/m -0,3 C -6,7 C 19,4 km/h (3 Bft)
14.11.2007 19:47 1,9 C 84 % 1016,5 hPa 0,0 l/m 23,1 km/h (4 Bft) NO 45 0 min 0 W/m -0,5 C -8,4 C 23,1 km/h (4 Bft)
14.11.2007 19:52 1,9 C 84 % 1016,5 hPa 0,0 l/m 20,0 km/h (4 Bft) NO 40 0 min 0 W/m -0,5 C -7,2 C 20,0 km/h (4 Bft)
14.11.2007 19:57 1,9 C 84 % 1016,5 hPa 0,0 l/m 19,8 km/h (3 Bft) NO 45 0 min 0 W/m -0,5 C -7,1 C 19,8 km/h (3 Bft)
14.11.2007 20:02 1,9 C 85 % 1016,5 hPa 0,0 l/m 15,6 km/h (3 Bft) NO 45 0 min 0 W/m -0,3 C -5,0 C 15,6 km/h (3 Bft)
14.11.2007 20:07 1,9 C 85 % 1016,5 hPa 0,0 l/m 22,7 km/h (4 Bft) N-NO 30 0 min 0 W/m -0,3 C -8,3 C 22,7 km/h (4 Bft)
14.11.2007 20:12 1,9 C 85 % 1016,5 hPa 0,0 l/m 19,8 km/h (3 Bft) NO 55 0 min 0 W/m -0,3 C -7,1 C 19,8 km/h (3 Bft)
14.11.2007 20:17 1,9 C 85 % 1017,5 hPa 0,0 l/m 19,1 km/h (3 Bft) NO 35 0 min 0 W/m -0,3 C -6,8 C 19,1 km/h (3 Bft)
14.11.2007 20:22 1,9 C 85 % 1017,5 hPa 0,0 l/m 15,8 km/h (3 Bft) NO 35 0 min 0 W/m -0,3 C -5,1 C 15,8 km/h (3 Bft)
14.11.2007 20:27 1,9 C 85 % 1017,5 hPa 0,0 l/m 21,0 km/h (4 Bft) NO 35 0 min 0 W/m -0,3 C -7,6 C 21,0 km/h (4 Bft)
14.11.2007 20:32 1,9 C 85 % 1017,5 hPa 0,0 l/m 23,5 km/h (4 Bft) N-NO 30 0 min 0 W/m -0,3 C -8,6 C 23,5 km/h (4 Bft)
14.11.2007 20:37 1,8 C 85 % 1017,5 hPa 0,0 l/m 13,8 km/h (3 Bft) NO 40 0 min 0 W/m -0,4 C -4,1 C 13,8 km/h (3 Bft)
14.11.2007 20:42 1,7 C 85 % 1017,5 hPa 0,0 l/m 20,1 km/h (4 Bft) NO 35 0 min 0 W/m -0,5 C -7,5 C 20,1 km/h (4 Bft)
14.11.2007 20:47 1,6 C 86 % 1017,5 hPa 0,0 l/m 21,5 km/h (4 Bft) NO 35 0 min 0 W/m -0,5 C -8,2 C 21,5 km/h (4 Bft)
14.11.2007 20:52 1,5 C 87 % 1017,5 hPa 0,0 l/m 17,9 km/h (3 Bft) NO 50 0 min 0 W/m -0,4 C -6,7 C 17,9 km/h (3 Bft)
14.11.2007 20:57 1,5 C 87 % 1017,5 hPa 0,0 l/m 16,2 km/h (3 Bft) NO 40 0 min 0 W/m -0,4 C -5,8 C 16,2 km/h (3 Bft)
14.11.2007 21:02 1,4 C 87 % 1017,5 hPa 0,0 l/m 20,0 km/h (4 Bft) N-NO 30 0 min 0 W/m -0,5 C -7,8 C 20,0 km/h (4 Bft)
14.11.2007 21:07 1,4 C 88 % 1017,5 hPa 0,0 l/m 18,8 km/h (3 Bft) NO 45 0 min 0 W/m -0,4 C -7,3 C 18,8 km/h (3 Bft)
14.11.2007 21:12 1,3 C 88 % 1017,5 hPa 0,0 l/m 13,0 km/h (3 Bft) NO 45 0 min 0 W/m -0,5 C -4,2 C 13,0 km/h (3 Bft)
14.11.2007 21:17 1,3 C 88 % 1017,5 hPa 0,0 l/m 16,5 km/h (3 Bft) NO 40 0 min 0 W/m -0,5 C -6,2 C 16,5 km/h (3 Bft)
14.11.2007 21:22 1,3 C 88 % 1017,5 hPa 0,0 l/m 19,6 km/h (3 Bft) NO 45 0 min 0 W/m -0,5 C -7,8 C 19,6 km/h (3 Bft)
14.11.2007 21:27 1,2 C 88 % 1017,5 hPa 0,0 l/m 19,0 km/h (3 Bft) NO 35 0 min 0 W/m -0,6 C -7,6 C 19,0 km/h (3 Bft)
14.11.2007 21:32 1,2 C 88 % 1017,5 hPa 0,0 l/m 18,1 km/h (3 Bft) NO 40 0 min 0 W/m -0,6 C -7,2 C 18,1 km/h (3 Bft)
14.11.2007 21:37 1,2 C 89 % 1017,5 hPa 0,0 l/m 13,3 km/h (3 Bft) NO 35 0 min 0 W/m -0,4 C -4,5 C 13,3 km/h (3 Bft)
14.11.2007 21:42 1,2 C 89 % 1017,5 hPa 0,0 l/m 15,0 km/h (3 Bft) NO 40 0 min 0 W/m -0,4 C -5,5 C 15,0 km/h (3 Bft)
14.11.2007 21:47 1,2 C 89 % 1018,5 hPa 0,0 l/m 12,5 km/h (2 Bft) NO 40 0 min 0 W/m -0,4 C -4,0 C 12,5 km/h (2 Bft)
14.11.2007 21:52 1,2 C 90 % 1018,5 hPa 0,0 l/m 19,3 km/h (3 Bft) NO 40 0 min 0 W/m -0,3 C -7,8 C 19,3 km/h (3 Bft)
14.11.2007 21:57 1,2 C 90 % 1018,5 hPa 0,0 l/m 16,6 km/h (3 Bft) NO 45 0 min 0 W/m -0,3 C -6,4 C 16,6 km/h (3 Bft)
14.11.2007 22:03 1,2 C 90 % 1018,5 hPa 0,0 l/m 20,1 km/h (4 Bft) NO 35 0 min 0 W/m -0,3 C -8,1 C 20,1 km/h (4 Bft)
14.11.2007 22:08 1,2 C 90 % 1018,5 hPa 0,0 l/m 15,9 km/h (3 Bft) N-NO 30 0 min 0 W/m -0,3 C -6,0 C 15,9 km/h (3 Bft)
14.11.2007 22:13 1,2 C 90 % 1018,5 hPa 0,0 l/m 20,0 km/h (4 Bft) NO 50 0 min 0 W/m -0,3 C -8,1 C 20,0 km/h (4 Bft)
14.11.2007 22:18 1,2 C 90 % 1018,5 hPa 0,0 l/m 13,3 km/h (3 Bft) NO 45 0 min 0 W/m -0,3 C -4,5 C 13,3 km/h (3 Bft)
14.11.2007 22:23 1,2 C 90 % 1018,5 hPa 0,0 l/m 17,3 km/h (3 Bft) NO 50 0 min 0 W/m -0,3 C -6,8 C 17,3 km/h (3 Bft)
14.11.2007 22:28 1,2 C 90 % 1018,5 hPa 0,0 l/m 16,3 km/h (3 Bft) NO 40 0 min 0 W/m -0,3 C -6,3 C 16,3 km/h (3 Bft)
14.11.2007 22:33 1,2 C 90 % 1018,5 hPa 0,0 l/m 13,2 km/h (3 Bft) NO 35 0 min 0 W/m -0,3 C -4,4 C 13,2 km/h (3 Bft)
14.11.2007 22:38 1,2 C 90 % 1018,5 hPa 0,0 l/m 20,1 km/h (4 Bft) NO 40 0 min 0 W/m -0,3 C -8,1 C 20,1 km/h (4 Bft)
14.11.2007 22:43 1,2 C 90 % 1018,5 hPa 0,0 l/m 18,0 km/h (3 Bft) NO 40 0 min 0 W/m -0,3 C -7,1 C 18,0 km/h (3 Bft)
14.11.2007 22:48 1,2 C 91 % 1018,5 hPa 0,0 l/m 22,5 km/h (4 Bft) NO 35 0 min 0 W/m -0,1 C -9,1 C 22,5 km/h (4 Bft)
14.11.2007 22:53 1,2 C 90 % 1018,5 hPa 0,0 l/m 18,8 km/h (3 Bft) NO 45 0 min 0 W/m -0,3 C -7,5 C 18,8 km/h (3 Bft)
14.11.2007 22:58 1,2 C 90 % 1018,5 hPa 0,0 l/m 21,3 km/h (4 Bft) NO 45 0 min 0 W/m -0,3 C -8,6 C 21,3 km/h (4 Bft)
14.11.2007 23:03 1,2 C 90 % 1019,5 hPa 0,0 l/m 18,3 km/h (3 Bft) NO 35 0 min 0 W/m -0,3 C -7,3 C 18,3 km/h (3 Bft)
14.11.2007 23:08 1,2 C 90 % 1019,5 hPa 0,0 l/m 14,3 km/h (3 Bft) NO 40 0 min 0 W/m -0,3 C -5,1 C 14,3 km/h (3 Bft)
14.11.2007 23:13 1,2 C 90 % 1019,5 hPa 0,0 l/m 16,5 km/h (3 Bft) NO 50 0 min 0 W/m -0,3 C -6,4 C 16,5 km/h (3 Bft)
14.11.2007 23:18 1,2 C 90 % 1019,5 hPa 0,0 l/m 17,6 km/h (3 Bft) NO 35 0 min 0 W/m -0,3 C -6,9 C 17,6 km/h (3 Bft)
14.11.2007 23:23 1,2 C 90 % 1019,5 hPa 0,0 l/m 17,5 km/h (3 Bft) NO 35 0 min 0 W/m -0,3 C -6,9 C 17,5 km/h (3 Bft)
14.11.2007 23:28 1,2 C 90 % 1019,5 hPa 0,0 l/m 16,5 km/h (3 Bft) NO 50 0 min 0 W/m -0,3 C -6,4 C 16,5 km/h (3 Bft)
14.11.2007 23:33 1,2 C 90 % 1019,5 hPa 0,0 l/m 14,5 km/h (3 Bft) NO 35 0 min 0 W/m -0,3 C -5,2 C 14,5 km/h (3 Bft)
14.11.2007 23:38 1,2 C 91 % 1019,5 hPa 0,0 l/m 12,6 km/h (3 Bft) NO 50 0 min 0 W/m -0,1 C -4,0 C 12,6 km/h (3 Bft)
14.11.2007 23:43 1,2 C 90 % 1019,5 hPa 0,0 l/m 15,1 km/h (3 Bft) N-NO 25 0 min 0 W/m -0,3 C -5,6 C 15,1 km/h (3 Bft)
14.11.2007 23:48 1,2 C 91 % 1019,5 hPa 0,0 l/m 13,6 km/h (3 Bft) NO 40 0 min 0 W/m -0,1 C -4,7 C 13,6 km/h (3 Bft)
14.11.2007 23:53 1,1 C 91 % 1019,5 hPa 0,0 l/m 15,6 km/h (3 Bft) NO 45 0 min 0 W/m -0,2 C -6,0 C 15,6 km/h (3 Bft)
14.11.2007 23:58 1,1 C 91 % 1019,5 hPa 0,0 l/m 16,6 km/h (3 Bft) NO 45 0 min 0 W/m -0,2 C -6,5 C 16,6 km/h (3 Bft)
_ Min-Zeit 23:53 15:57 00:02 - 14:32 - - - - 17:37 07:22 14:32
Minimum _ 1,1 C 81 % 1004,5 hPa - 11,3 km/h (2 Bft) - - - - -0,7 C -11,3 C 11,3 km/h (2 Bft)
_ Max-Zeit 11:27 00:02 23:03 07:42 07:22 - - 00:02 00:02 05:27 14:32 07:22
Maximum _ 3,9 C 94 % 1019,5 hPa 0,3 l/m 34,4 km/h
NO (5 Bft)
- - 0 min 0 W/m 1,7 C -0,2 C 34,4 km/h
NO (5 Bft)
Durchschnitt _ 2,4 C 87 % 1011,6 hPa #0,3 l/m 19,7 km/h (3 Bft) NO - #0 min. 0 W/m 0,5 C -6,2 C 19,7 km/h (3 Bft)
copyright by Holger Just